Time,TemperatureF,DewpointF,PressureIn,WindDirection,WindDirectionDegrees,WindSpeedMPH,WindSpeedGustMPH,Humidity,HourlyPrecipIn,Conditions,Clouds,dailyrainin,SoftwareType,DateUTC
2013-11-28 00:09:00,31.5,25.1,30.42,ESE,118,0.0,0.0,77,0.00,,,0.00,Wunderground v.1.15,2013-11-28 07:09:00,
2013-11-28 00:14:00,30.9,25.2,30.41,ESE,119,0.0,0.0,79,0.00,,,0.00,Wunderground v.1.15,2013-11-28 07:14:00,
2013-11-28 00:24:00,30.5,24.8,30.41,ESE,119,0.0,0.0,79,0.00,,,0.00,Wunderground v.1.15,2013-11-28 07:24:00,
2013-11-28 00:29:00,30.0,24.6,30.41,ESE,119,0.0,0.0,80,0.00,,,0.00,Wunderground v.1.15,2013-11-28 07:29:00,
2013-11-28 00:34:00,29.6,24.5,30.41,ESE,119,0.0,0.0,81,0.00,,,0.00,Wunderground v.1.15,2013-11-28 07:34:00,
2013-11-28 00:44:00,29.2,24.4,30.41,ESE,118,0.0,0.0,82,0.00,,,0.00,Wunderground v.1.15,2013-11-28 07:44:00,
2013-11-28 00:54:00,28.8,24.3,30.41,ESE,119,0.0,0.0,83,0.00,,,0.00,Wunderground v.1.15,2013-11-28 07:54:00,
2013-11-28 00:59:00,28.6,24.4,30.41,ESE,118,0.0,0.0,84,0.00,,,0.00,Wunderground v.1.15,2013-11-28 07:59:00,
2013-11-28 01:09:00,29.0,24.8,30.41,ESE,118,0.0,0.0,84,0.00,,,0.00,Wunderground v.1.15,2013-11-28 08:09:00,
2013-11-28 01:19:00,29.2,24.7,30.41,ESE,119,0.0,0.0,83,0.00,,,0.00,Wunderground v.1.15,2013-11-28 08:19:00,
2013-11-28 01:29:00,29.1,24.6,30.41,ESE,119,0.0,0.0,83,0.00,,,0.00,Wunderground v.1.15,2013-11-28 08:29:00,
2013-11-28 01:34:00,28.9,24.4,30.41,ESE,118,0.0,0.0,83,0.00,,,0.00,Wunderground v.1.15,2013-11-28 08:34:00,
2013-11-28 01:44:00,28.5,24.3,30.41,ESE,118,0.0,0.0,84,0.00,,,0.00,Wunderground v.1.15,2013-11-28 08:44:00,
2013-11-28 01:54:00,28.2,24.0,30.41,ESE,119,0.0,0.0,84,0.00,,,0.00,Wunderground v.1.15,2013-11-28 08:54:00,
2013-11-28 01:59:00,27.8,23.3,30.41,ESE,118,0.0,0.0,83,0.00,,,0.00,Wunderground v.1.15,2013-11-28 08:59:00,
2013-11-28 02:09:00,27.9,24.3,30.41,ESE,119,0.0,0.0,86,0.00,,,0.00,Wunderground v.1.15,2013-11-28 09:09:00,
2013-11-28 02:19:00,27.5,23.6,30.40,ESE,119,0.0,0.0,85,0.00,,,0.00,Wunderground v.1.15,2013-11-28 09:19:00,
2013-11-28 02:29:00,27.4,23.8,30.40,ESE,118,0.0,0.0,86,0.00,,,0.00,Wunderground v.1.15,2013-11-28 09:29:00,
2013-11-28 02:39:00,27.8,24.2,30.41,ESE,118,0.0,0.0,86,0.00,,,0.00,Wunderground v.1.15,2013-11-28 09:39:00,
2013-11-28 02:44:00,28.2,24.3,30.40,ESE,119,0.0,0.0,85,0.00,,,0.00,Wunderground v.1.15,2013-11-28 09:44:00,
2013-11-28 02:49:00,28.2,24.0,30.40,ESE,119,0.0,0.0,84,0.00,,,0.00,Wunderground v.1.15,2013-11-28 09:49:00,
2013-11-28 02:59:00,28.4,24.5,30.40,ESE,119,0.0,0.0,85,0.00,,,0.00,Wunderground v.1.15,2013-11-28 09:59:00,
2013-11-28 03:09:00,28.4,24.2,30.41,ESE,119,0.0,0.0,84,0.00,,,0.00,Wunderground v.1.15,2013-11-28 10:09:00,
2013-11-28 03:14:00,28.1,23.9,30.41,ESE,119,0.0,0.0,84,0.00,,,0.00,Wunderground v.1.15,2013-11-28 10:14:00,
2013-11-28 03:24:00,27.7,23.8,30.41,ESE,119,0.0,0.0,85,0.00,,,0.00,Wunderground v.1.15,2013-11-28 10:24:00,
2013-11-28 03:34:00,27.4,23.5,30.41,ESE,119,0.0,0.0,85,0.00,,,0.00,Wunderground v.1.15,2013-11-28 10:34:00,
2013-11-28 03:44:00,27.2,23.3,30.41,ESE,119,0.0,0.0,85,0.00,,,0.00,Wunderground v.1.15,2013-11-28 10:44:00,
2013-11-28 03:54:00,27.2,23.6,30.41,ESE,119,0.0,0.0,86,0.00,,,0.00,Wunderground v.1.15,2013-11-28 10:54:00,
2013-11-28 03:59:00,27.1,23.5,30.41,ESE,119,0.0,0.0,86,0.00,,,0.00,Wunderground v.1.15,2013-11-28 10:59:00,
2013-11-28 04:09:00,26.8,23.4,30.41,ESE,119,0.0,0.0,87,0.00,,,0.00,Wunderground v.1.15,2013-11-28 11:09:00,
2013-11-28 04:14:00,26.7,23.1,30.41,ESE,119,0.0,0.0,86,0.00,,,0.00,Wunderground v.1.15,2013-11-28 11:14:00,
2013-11-28 04:19:00,26.6,23.0,30.41,ESE,118,0.0,0.0,86,0.00,,,0.00,Wunderground v.1.15,2013-11-28 11:19:00,
2013-11-28 04:29:00,26.5,23.2,30.41,ESE,119,0.0,0.0,87,0.00,,,0.00,Wunderground v.1.15,2013-11-28 11:29:00,
2013-11-28 04:34:00,26.3,22.7,30.41,ESE,119,0.0,0.0,86,0.00,,,0.00,Wunderground v.1.15,2013-11-28 11:34:00,
2013-11-28 04:44:00,25.9,22.6,30.41,ESE,119,0.0,0.0,87,0.00,,,0.00,Wunderground v.1.15,2013-11-28 11:44:00,
2013-11-28 04:54:00,26.0,22.9,30.41,ESE,119,0.0,0.0,88,0.00,,,0.00,Wunderground v.1.15,2013-11-28 11:54:00,
2013-11-28 04:59:00,26.1,22.8,30.41,ESE,119,0.0,0.0,87,0.00,,,0.00,Wunderground v.1.15,2013-11-28 11:59:00,
2013-11-28 05:09:00,26.2,22.9,30.42,ESE,119,0.0,0.0,87,0.00,,,0.00,Wunderground v.1.15,2013-11-28 12:09:00,
2013-11-28 05:19:00,26.1,23.0,30.42,ESE,118,0.0,0.0,88,0.00,,,0.00,Wunderground v.1.15,2013-11-28 12:19:00,
2013-11-28 05:29:00,25.8,22.5,30.42,ESE,119,0.0,0.0,87,0.00,,,0.00,Wunderground v.1.15,2013-11-28 12:29:00,
2013-11-28 05:39:00,25.4,22.3,30.42,ESE,118,0.0,0.0,88,0.00,,,0.00,Wunderground v.1.15,2013-11-28 12:39:00,
2013-11-28 05:49:00,25.2,22.1,30.42,ESE,119,0.0,0.0,88,0.00,,,0.00,Wunderground v.1.15,2013-11-28 12:49:00,
2013-11-28 05:59:00,25.0,22.2,30.42,ESE,119,0.0,0.0,89,0.00,,,0.00,Wunderground v.1.15,2013-11-28 12:59:00,
2013-11-28 06:09:00,24.7,21.9,30.42,ESE,119,0.0,0.0,89,0.00,,,0.00,Wunderground v.1.15,2013-11-28 13:09:00,
2013-11-28 06:19:00,25.3,22.8,30.42,ESE,120,0.0,0.0,90,0.00,,,0.00,Wunderground v.1.15,2013-11-28 13:19:00,
2013-11-28 06:24:00,25.6,23.1,30.42,ESE,118,0.0,0.0,90,0.00,,,0.00,Wunderground v.1.15,2013-11-28 13:24:00,
2013-11-28 06:34:00,26.0,22.9,30.42,ESE,117,0.0,0.0,88,0.00,,,0.00,Wunderground v.1.15,2013-11-28 13:34:00,
2013-11-28 06:44:00,25.4,22.1,30.43,ESE,117,0.0,0.0,87,0.00,,,0.00,Wunderground v.1.15,2013-11-28 13:44:00,
2013-11-28 06:54:00,24.8,21.8,30.43,ESE,117,0.0,0.0,88,0.00,,,0.00,Wunderground v.1.15,2013-11-28 13:54:00,
2013-11-28 06:59:00,24.7,21.9,30.43,ESE,117,0.0,0.0,89,0.00,,,0.00,Wunderground v.1.15,2013-11-28 13:59:00,
2013-11-28 07:04:00,24.5,21.7,30.44,ESE,117,0.0,0.0,89,0.00,,,0.00,Wunderground v.1.15,2013-11-28 14:04:00,
2013-11-28 07:14:00,24.3,21.8,30.44,ESE,117,0.0,0.0,90,0.00,,,0.00,Wunderground v.1.15,2013-11-28 14:14:00,
2013-11-28 07:24:00,24.7,22.7,30.44,ESE,117,0.0,0.0,92,0.00,,,0.00,Wunderground v.1.15,2013-11-28 14:24:00,
2013-11-28 07:34:00,25.9,23.9,30.45,ESE,117,0.0,0.0,92,0.00,,,0.00,Wunderground v.1.15,2013-11-28 14:34:00,
2013-11-28 07:39:00,26.9,24.9,30.45,ESE,117,0.0,0.0,92,0.00,,,0.00,Wunderground v.1.15,2013-11-28 14:39:00,
2013-11-28 07:49:00,28.5,25.4,30.46,ESE,117,0.0,0.0,88,0.00,,,0.00,Wunderground v.1.15,2013-11-28 14:49:00,
2013-11-28 07:59:00,29.2,25.5,30.46,ENE,70,0.0,0.0,86,0.00,,,0.00,Wunderground v.1.15,2013-11-28 14:59:00,
2013-11-28 08:09:00,29.8,25.6,30.46,ENE,70,0.0,0.0,84,0.00,,,0.00,Wunderground v.1.15,2013-11-28 15:09:00,
2013-11-28 08:19:00,30.5,25.7,30.45,NNE,25,0.0,0.0,82,0.00,,,0.00,Wunderground v.1.15,2013-11-28 15:19:00,
2013-11-28 08:24:00,31.2,26.0,30.45,WSW,253,0.0,0.0,81,0.00,,,0.00,Wunderground v.1.15,2013-11-28 15:24:00,
2013-11-28 08:34:00,32.1,26.0,30.46,WSW,248,0.0,0.0,78,0.00,,,0.00,Wunderground v.1.15,2013-11-28 15:34:00,
2013-11-28 08:44:00,32.6,25.9,30.46,NNE,12,0.0,2.0,76,0.00,,,0.00,Wunderground v.1.15,2013-11-28 15:44:00,
2013-11-28 08:54:00,32.9,25.8,30.47,NNW,345,0.0,2.0,75,0.00,,,0.00,Wunderground v.1.15,2013-11-28 15:54:00,
2013-11-28 08:59:00,33.0,25.9,30.47,North,11,1.0,1.0,75,0.00,,,0.00,Wunderground v.1.15,2013-11-28 15:59:00,
2013-11-28 09:09:00,33.8,26.1,30.47,NW,315,0.0,0.0,73,0.00,,,0.00,Wunderground v.1.15,2013-11-28 16:09:00,
2013-11-28 09:19:00,35.6,27.1,30.47,SW,217,0.0,0.0,71,0.00,,,0.00,Wunderground v.1.15,2013-11-28 16:19:00,
2013-11-28 09:24:00,36.4,27.2,30.47,WSW,239,0.0,1.0,69,0.00,,,0.00,Wunderground v.1.15,2013-11-28 16:24:00,
2013-11-28 09:34:00,37.0,27.1,30.47,WSW,248,0.0,0.0,67,0.00,,,0.00,Wunderground v.1.15,2013-11-28 16:34:00,
2013-11-28 09:44:00,37.1,26.8,30.48,West,273,1.0,1.0,66,0.00,,,0.00,Wunderground v.1.15,2013-11-28 16:44:00,
2013-11-28 09:49:00,37.5,27.2,30.48,NW,307,1.0,1.0,66,0.00,,,0.00,Wunderground v.1.15,2013-11-28 16:49:00,
2013-11-28 09:59:00,38.3,26.8,30.47,NW,315,1.0,2.0,63,0.00,,,0.00,Wunderground v.1.15,2013-11-28 16:59:00,
2013-11-28 10:09:00,38.2,26.7,30.47,SW,225,1.0,1.0,63,0.00,,,0.00,Wunderground v.1.15,2013-11-28 17:09:00,
2013-11-28 10:19:00,39.0,26.7,30.46,SSW,201,1.0,1.0,61,0.00,,,0.00,Wunderground v.1.15,2013-11-28 17:19:00,
2013-11-28 10:29:00,39.7,26.9,30.46,WSW,250,1.0,1.0,60,0.00,,,0.00,Wunderground v.1.15,2013-11-28 17:29:00,
2013-11-28 10:34:00,40.0,27.2,30.46,SW,233,1.0,2.0,60,0.00,,,0.00,Wunderground v.1.15,2013-11-28 17:34:00,
2013-11-28 10:44:00,40.4,27.2,30.46,West,280,2.0,2.0,59,0.00,,,0.00,Wunderground v.1.15,2013-11-28 17:44:00,
2013-11-28 10:54:00,40.8,26.7,30.46,North,356,1.0,2.0,57,0.00,,,0.00,Wunderground v.1.15,2013-11-28 17:54:00,
2013-11-28 10:59:00,40.5,26.4,30.46,NNW,335,2.0,2.0,57,0.00,,,0.00,Wunderground v.1.15,2013-11-28 17:59:00,
2013-11-28 11:09:00,40.8,26.7,30.45,SSE,154,2.0,2.0,57,0.00,,,0.00,Wunderground v.1.15,2013-11-28 18:09:00,
2013-11-28 11:14:00,41.3,26.8,30.45,NW,309,2.0,2.0,56,0.00,,,0.00,Wunderground v.1.15,2013-11-28 18:14:00,
2013-11-28 11:24:00,42.2,27.6,30.45,West,263,1.0,3.0,56,0.00,,,0.00,Wunderground v.1.15,2013-11-28 18:24:00,
2013-11-28 11:34:00,43.1,26.7,30.45,SE,134,1.0,4.0,52,0.00,,,0.00,Wunderground v.1.15,2013-11-28 18:34:00,
2013-11-28 11:44:00,43.0,26.6,30.45,WSW,243,3.0,4.0,52,0.00,,,0.00,Wunderground v.1.15,2013-11-28 18:44:00,
2013-11-28 11:54:00,43.4,26.9,30.44,ESE,110,2.0,2.0,52,0.00,,,0.00,Wunderground v.1.15,2013-11-28 18:54:00,
2013-11-28 11:59:00,43.8,26.3,30.44,SW,215,2.0,3.0,50,0.00,,,0.00,Wunderground v.1.15,2013-11-28 18:59:00,
2013-11-28 12:09:00,44.0,25.5,30.43,WSW,239,2.0,2.0,48,0.00,,,0.00,Wunderground v.1.15,2013-11-28 19:09:00,
2013-11-28 12:19:00,43.7,25.3,30.43,SSE,165,2.0,3.0,48,0.00,,,0.00,Wunderground v.1.15,2013-11-28 19:19:00,
2013-11-28 12:29:00,43.9,25.5,30.43,ESE,108,4.0,4.0,48,0.00,,,0.00,Wunderground v.1.15,2013-11-28 19:29:00,
2013-11-28 12:39:00,44.8,26.3,30.42,South,181,2.0,6.0,48,0.00,,,0.00,Wunderground v.1.15,2013-11-28 19:39:00,
2013-11-28 12:44:00,45.0,26.0,30.42,SSW,205,2.0,6.0,47,0.00,,,0.00,Wunderground v.1.15,2013-11-28 19:44:00,
2013-11-28 12:54:00,46.3,27.2,30.42,SE,146,1.0,1.0,47,0.00,,,0.00,Wunderground v.1.15,2013-11-28 19:54:00,
2013-11-28 12:59:00,46.4,27.2,30.42,SSE,155,2.0,5.0,47,0.00,,,0.00,Wunderground v.1.15,2013-11-28 19:59:00,
2013-11-28 13:09:00,45.8,26.7,30.42,ESE,103,3.0,3.0,47,0.00,,,0.00,Wunderground v.1.15,2013-11-28 20:09:00,
2013-11-28 13:19:00,46.3,26.6,30.41,SSW,204,2.0,2.0,46,0.00,,,0.00,Wunderground v.1.15,2013-11-28 20:19:00,
2013-11-28 13:24:00,46.5,26.3,30.41,SSE,150,1.0,4.0,45,0.00,,,0.00,Wunderground v.1.15,2013-11-28 20:24:00,
2013-11-28 13:34:00,47.0,26.2,30.40,West,273,2.0,3.0,44,0.00,,,0.00,Wunderground v.1.15,2013-11-28 20:34:00,
2013-11-28 13:44:00,46.8,25.5,30.40,NNW,328,1.0,2.0,43,0.00,,,0.00,Wunderground v.1.15,2013-11-28 20:44:00,
2013-11-28 13:54:00,47.8,26.4,30.40,SSE,162,1.0,3.0,43,0.00,,,0.00,Wunderground v.1.15,2013-11-28 20:54:00,
2013-11-28 13:59:00,47.9,25.9,30.39,WSW,256,2.0,2.0,42,0.00,,,0.00,Wunderground v.1.15,2013-11-28 20:59:00,
2013-11-28 14:09:00,48.0,26.0,30.39,SW,219,2.0,2.0,42,0.00,,,0.00,Wunderground v.1.15,2013-11-28 21:09:00,
2013-11-28 14:19:00,48.2,26.2,30.39,SW,215,3.0,3.0,42,0.00,,,0.00,Wunderground v.1.15,2013-11-28 21:19:00,
2013-11-28 14:24:00,48.5,26.4,30.39,SSW,212,3.0,3.0,42,0.00,,,0.00,Wunderground v.1.15,2013-11-28 21:24:00,
2013-11-28 14:34:00,48.2,26.2,30.39,NW,317,2.0,3.0,42,0.00,,,0.00,Wunderground v.1.15,2013-11-28 21:34:00,
2013-11-28 14:44:00,48.7,26.0,30.40,SSE,150,3.0,5.0,41,0.00,,,0.00,Wunderground v.1.15,2013-11-28 21:44:00,
2013-11-28 14:54:00,49.0,26.3,30.40,SW,219,1.0,4.0,41,0.00,,,0.00,Wunderground v.1.15,2013-11-28 21:54:00,
2013-11-28 14:59:00,49.6,26.2,30.39,SE,141,1.0,2.0,40,0.00,,,0.00,Wunderground v.1.15,2013-11-28 21:59:00,
2013-11-28 15:09:00,50.0,26.0,30.39,SE,125,1.0,1.0,39,0.00,,,0.00,Wunderground v.1.15,2013-11-28 22:09:00,
2013-11-28 15:19:00,50.5,25.8,30.38,WSW,239,0.0,0.0,38,0.00,,,0.00,Wunderground v.1.15,2013-11-28 22:19:00,
2013-11-28 15:29:00,50.8,25.4,30.37,East,91,0.0,0.0,37,0.00,,,0.00,Wunderground v.1.15,2013-11-28 22:29:00,
2013-11-28 15:39:00,49.6,25.0,30.37,WNW,285,0.0,0.0,38,0.00,,,0.00,Wunderground v.1.15,2013-11-28 22:39:00,
2013-11-28 15:49:00,50.2,25.5,30.37,SW,236,0.0,2.0,38,0.00,,,0.00,Wunderground v.1.15,2013-11-28 22:49:00,
2013-11-28 15:59:00,49.9,25.3,30.37,NW,307,1.0,1.0,38,0.00,,,0.00,Wunderground v.1.15,2013-11-28 22:59:00,
2013-11-28 16:09:00,49.5,24.9,30.37,West,278,1.0,1.0,38,0.00,,,0.00,Wunderground v.1.15,2013-11-28 23:09:00,
2013-11-28 16:14:00,49.5,24.9,30.37,WSW,249,1.0,2.0,38,0.00,,,0.00,Wunderground v.1.15,2013-11-28 23:14:00,
2013-11-28 16:24:00,49.3,24.7,30.37,West,274,0.0,0.0,38,0.00,,,0.00,Wunderground v.1.15,2013-11-28 23:24:00,
2013-11-28 16:34:00,48.1,24.9,30.38,NNW,348,0.0,1.0,40,0.00,,,0.00,Wunderground v.1.15,2013-11-28 23:34:00,
2013-11-28 16:44:00,47.0,25.6,30.38,NW,308,1.0,1.0,43,0.00,,,0.00,Wunderground v.1.15,2013-11-28 23:44:00,
2013-11-28 16:49:00,46.6,25.3,30.38,NW,320,0.0,0.0,43,0.00,,,0.00,Wunderground v.1.15,2013-11-28 23:49:00,
2013-11-28 16:59:00,45.7,25.5,30.39,WSW,254,0.0,0.0,45,0.00,,,0.00,Wunderground v.1.15,2013-11-28 23:59:00,
2013-11-28 17:09:00,44.7,25.2,30.39,WSW,255,0.0,0.0,46,0.00,,,0.00,Wunderground v.1.15,2013-11-29 00:09:00,
2013-11-28 17:19:00,43.6,25.2,30.40,WSW,254,0.0,0.0,48,0.00,,,0.00,Wunderground v.1.15,2013-11-29 00:19:00,
2013-11-28 17:24:00,43.1,25.2,30.40,WSW,254,0.0,0.0,49,0.00,,,0.00,Wunderground v.1.15,2013-11-29 00:24:00,
2013-11-28 17:29:00,42.4,25.1,30.40,WSW,254,0.0,0.0,50,0.00,,,0.00,Wunderground v.1.15,2013-11-29 00:29:00,
2013-11-28 17:39:00,41.8,26.4,30.41,WSW,255,0.0,0.0,54,0.00,,,0.00,Wunderground v.1.15,2013-11-29 00:39:00,
2013-11-28 17:49:00,41.1,26.1,30.41,South,191,0.0,0.0,55,0.00,,,0.00,Wunderground v.1.15,2013-11-29 00:49:00,
2013-11-28 17:59:00,40.3,26.3,30.41,South,191,0.0,0.0,57,0.00,,,0.00,Wunderground v.1.15,2013-11-29 00:59:00,
2013-11-28 18:09:00,40.0,26.4,30.41,SE,124,0.0,0.0,58,0.00,,,0.00,Wunderground v.1.15,2013-11-29 01:09:00,
2013-11-28 18:14:00,40.1,26.5,30.41,SE,124,0.0,0.0,58,0.00,,,0.00,Wunderground v.1.15,2013-11-29 01:14:00,
2013-11-28 18:24:00,39.7,26.9,30.42,SE,124,0.0,0.0,60,0.00,,,0.00,Wunderground v.1.15,2013-11-29 01:24:00,
2013-11-28 18:34:00,38.7,26.4,30.42,SE,124,0.0,0.0,61,0.00,,,0.00,Wunderground v.1.15,2013-11-29 01:34:00,
2013-11-28 18:44:00,37.8,26.3,30.43,SE,124,0.0,0.0,63,0.00,,,0.00,Wunderground v.1.15,2013-11-29 01:44:00,
2013-11-28 18:49:00,37.6,26.1,30.43,SE,124,0.0,0.0,63,0.00,,,0.00,Wunderground v.1.15,2013-11-29 01:49:00,
2013-11-28 18:59:00,37.3,26.2,30.44,SE,124,0.0,0.0,64,0.00,,,0.00,Wunderground v.1.15,2013-11-29 01:59:00,
2013-11-28 19:09:00,37.5,26.4,30.44,SE,124,0.0,0.0,64,0.00,,,0.00,Wunderground v.1.15,2013-11-29 02:09:00,
2013-11-28 19:19:00,37.1,26.4,30.44,SE,124,0.0,0.0,65,0.00,,,0.00,Wunderground v.1.15,2013-11-29 02:19:00,
2013-11-28 19:29:00,36.8,26.1,30.44,SE,124,0.0,0.0,65,0.00,,,0.00,Wunderground v.1.15,2013-11-29 02:29:00,
2013-11-28 19:34:00,36.6,26.3,30.44,SE,124,0.0,0.0,66,0.00,,,0.00,Wunderground v.1.15,2013-11-29 02:34:00,
2013-11-28 19:44:00,36.7,26.0,30.44,SE,124,0.0,0.0,65,0.00,,,0.00,Wunderground v.1.15,2013-11-29 02:44:00,
2013-11-28 19:54:00,36.6,25.9,30.45,SE,124,0.0,0.0,65,0.00,,,0.00,Wunderground v.1.15,2013-11-29 02:54:00,
2013-11-28 19:59:00,36.4,26.1,30.45,SE,124,0.0,0.0,66,0.00,,,0.00,Wunderground v.1.15,2013-11-29 02:59:00,
2013-11-28 20:09:00,36.1,25.8,30.45,SE,124,0.0,0.0,66,0.00,,,0.00,Wunderground v.1.15,2013-11-29 03:09:00,
2013-11-28 20:19:00,35.7,25.8,30.45,SE,124,0.0,0.0,67,0.00,,,0.00,Wunderground v.1.15,2013-11-29 03:19:00,
2013-11-28 20:29:00,35.6,25.7,30.45,SE,124,0.0,0.0,67,0.00,,,0.00,Wunderground v.1.15,2013-11-29 03:29:00,
2013-11-28 20:39:00,35.5,26.0,30.45,SE,124,0.0,0.0,68,0.00,,,0.00,Wunderground v.1.15,2013-11-29 03:39:00,
2013-11-28 20:44:00,35.2,25.7,30.45,SSW,212,0.0,0.0,68,0.00,,,0.00,Wunderground v.1.15,2013-11-29 03:44:00,
2013-11-28 20:54:00,34.7,25.6,30.46,SSW,211,0.0,0.0,69,0.00,,,0.00,Wunderground v.1.15,2013-11-29 03:54:00,
2013-11-28 20:59:00,34.3,25.5,30.46,SSW,212,0.0,0.0,70,0.00,,,0.00,Wunderground v.1.15,2013-11-29 03:59:00,
2013-11-28 21:09:00,33.5,25.4,30.46,SSW,211,0.0,0.0,72,0.00,,,0.00,Wunderground v.1.15,2013-11-29 04:09:00,
2013-11-28 21:19:00,33.3,25.6,30.46,SSW,211,0.0,0.0,73,0.00,,,0.00,Wunderground v.1.15,2013-11-29 04:19:00,
2013-11-28 21:29:00,32.8,25.4,30.47,SSW,211,0.0,0.0,74,0.00,,,0.00,Wunderground v.1.15,2013-11-29 04:29:00,
2013-11-28 21:39:00,32.9,25.5,30.47,SSW,211,0.0,0.0,74,0.00,,,0.00,Wunderground v.1.15,2013-11-29 04:39:00,
2013-11-28 21:49:00,32.6,24.9,30.47,SSW,211,0.0,0.0,73,0.00,,,0.00,Wunderground v.1.15,2013-11-29 04:49:00,
2013-11-28 21:59:00,33.0,25.6,30.47,SSW,211,0.0,0.0,74,0.00,,,0.00,Wunderground v.1.15,2013-11-29 04:59:00,
2013-11-28 22:04:00,33.2,25.5,30.47,SSW,211,0.0,0.0,73,0.00,,,0.00,Wunderground v.1.15,2013-11-29 05:04:00,
2013-11-28 22:09:00,33.1,25.4,30.47,SSW,211,0.0,0.0,73,0.00,,,0.00,Wunderground v.1.15,2013-11-29 05:09:00,
2013-11-28 22:19:00,33.1,25.1,30.47,SSW,210,0.0,0.0,72,0.00,,,0.00,Wunderground v.1.15,2013-11-29 05:19:00,
2013-11-28 22:24:00,33.3,25.2,30.47,SSW,208,0.0,0.0,72,0.00,,,0.00,Wunderground v.1.15,2013-11-29 05:24:00,
2013-11-28 22:29:00,33.1,25.4,30.47,SSW,208,0.0,0.0,73,0.00,,,0.00,Wunderground v.1.15,2013-11-29 05:29:00,
2013-11-28 22:34:00,32.6,25.2,30.47,SSW,208,0.0,0.0,74,0.00,,,0.00,Wunderground v.1.15,2013-11-29 05:34:00,
2013-11-28 22:44:00,32.1,25.1,30.47,SSW,208,0.0,0.0,75,0.00,,,0.00,Wunderground v.1.15,2013-11-29 05:44:00,
2013-11-28 22:49:00,31.7,25.0,30.47,SSW,208,0.0,0.0,76,0.00,,,0.00,Wunderground v.1.15,2013-11-29 05:49:00,
2013-11-28 22:59:00,31.3,24.9,30.48,SSW,208,0.0,0.0,77,0.00,,,0.00,Wunderground v.1.15,2013-11-29 05:59:00,
2013-11-28 23:09:00,30.8,24.4,30.48,SSW,193,0.0,0.0,77,0.00,,,0.00,Wunderground v.1.15,2013-11-29 06:09:00,
2013-11-28 23:19:00,30.2,24.2,30.49,SSW,193,0.0,0.0,78,0.00,,,0.00,Wunderground v.1.15,2013-11-29 06:19:00,
2013-11-28 23:29:00,29.8,24.4,30.49,SSW,193,0.0,0.0,80,0.00,,,0.00,Wunderground v.1.15,2013-11-29 06:29:00,
2013-11-28 23:39:00,29.8,24.4,30.49,SSW,193,0.0,0.0,80,0.00,,,0.00,Wunderground v.1.15,2013-11-29 06:39:00,
2013-11-28 23:49:00,29.5,24.1,30.50,SSW,193,0.0,0.0,80,0.00,,,0.00,Wunderground v.1.15,2013-11-29 06:49:00,
2013-11-28 23:59:00,29.4,24.3,30.50,SSW,193,0.0,0.0,81,0.00,,,0.00,Wunderground v.1.15,2013-11-29 06:59:00,